Pattonsburg, Missouri
Current Conditions -  °F | °C
As of 2:53 PM on Saturday 22 Nov 2014 (Local Time) from KLWD Reporting Station
Moderate Fog Moderate Fog  
Wind Chill: 51°   Ceiling: 200
Heat Index: 51°   Visibility: 0.25mi
Dew Point: 51°   Wind: 7mph
Humidity: 100%   Direction: 190°S
Pressure: 29.77"   Gusts: NA
Location:  40.05°N, 94.14°W
Report Text: KLWD 222053Z AUTO 19006KT 1/4SM FG VV002 11/11 A2977 RMK AO2 SLP085 T01060106 56024
Loading
Personal Weather Stations






























Interactive Weather Map New forecast layout! Learn more

10-Day Weather Forecast

Advertisements
Track Severe Weather on mobile